Oval Lp No.11 — JL6306 — position and weather

sailwx.info

Track history (hours):
 
Tides and Currents Weather Stations Pressure Air Temp Water Temp Dewpoint Dewpoint Depression Visibility Wind Speed Wind Dir Waves Ship Positions

Oval Lp No.11

Last reported at 2014-Aug-01 07:23 UTC. Time now 2014-Aug-01 07:50 UTC.
Position N 34°00' E 135°02'.

Length 67 m; draft 3.6 m.

Type: Ship (hazmat cat A). MMSI: 431500366.

Date/timePositionNaut miles runAvg speedWind from/ knotsBaromVisibWave heightAir tempDewpointWater temp
2014-Aug-01 07:23N 34°00' E 135°02'8 9.4
2014-Aug-01 06:34N 34°08' E 135°06'1 0.1
2014-Jul-31 22:31N 34°08' E 135°07'7 0.2
2014-Jul-30 07:20N 34°03' E 135°00'911.4
2014-Jul-30 06:33N 34°12' E 134°59'1211.7
2014-Jul-30 05:31N 34°23' E 135°03'1212.0
2014-Jul-30 04:33N 34°31' E 135°14'1110.6
2014-Jul-30 03:33N 34°36' E 135°25'2 0.5
2014-Jul-30 00:19N 34°35' E 135°26'0 0.0
2014-Jul-29 23:31N 34°35' E 135°26'0 0.1
2014-Jul-29 22:33N 34°35' E 135°26'2 2.0
2014-Jul-29 21:20N 34°36' E 135°23'0 0.0
2014-Jul-29 20:26N 34°36' E 135°23'0 0.1
2014-Jul-29 19:26N 34°36' E 135°23'0 0.0
2014-Jul-29 18:20N 34°36' E 135°23'0 0.1
2014-Jul-29 17:32N 34°36' E 135°23'0 0.0
2014-Jul-29 16:26N 34°36' E 135°23'0 0.0
2014-Jul-29 15:32N 34°36' E 135°23'0 0.0
2014-Jul-29 14:32N 34°36' E 135°23'0 0.0
2014-Jul-29 13:26N 34°36' E 135°23'0 0.0
2014-Jul-29 12:32N 34°36' E 135°23'0 0.0
2014-Jul-29 11:20N 34°36' E 135°23'0 0.0
2014-Jul-29 10:20N 34°36' E 135°23'0 0.0
2014-Jul-29 09:20N 34°36' E 135°23'0 0.0
2014-Jul-29 08:32N 34°36' E 135°23'0 0.2
2014-Jul-29 07:33N 34°36' E 135°23'1211.8
2014-Jul-29 06:33N 34°28' E 135°12'1111.4
2014-Jul-29 05:33N 34°20' E 135°02'1010.0
2014-Jul-29 04:33N 34°10' E 135°00'11 0.3
2014-Jul-27 15:14N 33°59' E 135°00'812.0
2014-Jul-27 14:33N 34°07' E 134°59'1211.4
2014-Jul-27 13:29N 34°19' E 134°59'1010.4
2014-Jul-27 12:33N 34°27' E 135°06'1211.9
2014-Jul-27 11:33N 34°34' E 135°18'6 6.4
2014-Jul-27 10:33N 34°35' E 135°26'0 0.0
2014-Jul-27 09:15N 34°35' E 135°26'0 0.0
2014-Jul-27 08:33N 34°35' E 135°26'0 0.0
2014-Jul-27 07:33N 34°35' E 135°26'0 0.0
2014-Jul-27 06:33N 34°35' E 135°26'1 0.7
2014-Jul-27 05:32N 34°35' E 135°25'2 2.0
2014-Jul-27 04:33N 34°36' E 135°23'0 0.0
2014-Jul-27 03:33N 34°36' E 135°23'0 0.0
2014-Jul-27 02:27N 34°36' E 135°23'4 4.6
2014-Jul-27 01:33N 34°33' E 135°19'1212.1
2014-Jul-27 00:33N 34°25' E 135°08'1211.4
2014-Jul-26 23:30N 34°15' E 134°60'1212.2
2014-Jul-26 22:30N 34°03' E 135°01'7 0.2
2014-Jul-25 08:17N 33°56' E 135°01'810.9
2014-Jul-25 07:33N 34°04' E 135°00'1211.7
2014-Jul-25 06:30N 34°16' E 134°59'1111.4
2014-Jul-25 05:32N 34°26' E 135°06'1211.8
2014-Jul-25 04:33N 34°33' E 135°17'7 7.3
2014-Jul-25 03:33N 34°35' E 135°26'0 0.0
2014-Jul-25 02:24N 34°35' E 135°26'0 0.0
2014-Jul-25 01:30N 34°35' E 135°26'0 0.0
2014-Jul-25 00:30N 34°35' E 135°26'0 0.0
2014-Jul-24 23:24N 34°35' E 135°26'1 0.9
2014-Jul-24 22:33N 34°35' E 135°25'2 2.1
2014-Jul-24 21:32N 34°36' E 135°23'0 0.0
2014-Jul-24 20:26N 34°36' E 135°23'0 0.0
2014-Jul-24 19:32N 34°36' E 135°23'0 0.0
2014-Jul-24 18:32N 34°36' E 135°23'0 0.0
2014-Jul-24 17:32N 34°36' E 135°23'0 0.0
2014-Jul-24 16:32N 34°36' E 135°23'0 0.0
2014-Jul-24 15:14N 34°36' E 135°23'0 0.1
2014-Jul-24 14:32N 34°36' E 135°23'0 0.0
2014-Jul-24 13:32N 34°36' E 135°23'0 0.0
2014-Jul-24 12:32N 34°36' E 135°23'0 0.0
2014-Jul-24 11:32N 34°36' E 135°23'1010.1
2014-Jul-24 10:33N 34°35' E 135°11'10 9.7
2014-Jul-24 09:32N 34°37' E 134°59'1210.0
2014-Jul-24 08:18N 34°32' E 134°46'4 0.2
2014-Jul-23 13:32N 34°34' E 134°50'1111.2
2014-Jul-23 12:34N 34°37' E 135°03'1111.0
2014-Jul-23 11:33N 34°26' E 135°03'1212.5
2014-Jul-23 10:33N 34°13' E 134°60'1312.6
2014-Jul-23 09:31N 34°00' E 135°01'21310.1
2014-Jul-22 12:32N 34°50' E 139°12'1111.2
2014-Jul-22 11:33N 34°59' E 139°20'9 9.5
2014-Jul-22 10:33N 35°03' E 139°31'1010.2
2014-Jul-22 09:33N 35°07' E 139°42'1010.4
2014-Jul-22 08:33N 35°18' E 139°44'10 9.6
2014-Jul-22 07:33N 35°27' E 139°47'  
Track history (hours):
 
Tides and Currents Weather Stations Pressure Air Temp Water Temp Dewpoint Dewpoint Depression Visibility Wind Speed Wind Dir Waves Ship Positions

Oval Lp No.11

Last reported at 2014-Aug-01 07:23 UTC. Time now 2014-Aug-01 07:50 UTC.
Position N 34°00' E 135°02'.

Length 67 m; draft 3.6 m.

Type: Ship (hazmat cat A). MMSI: 431500366.

Date/timePositionNaut miles runAvg speedWind from/ knotsBaromVisibWave heightAir tempDewpointWater temp
2014-Aug-01 07:23N 34°00' E 135°02'8 9.4
2014-Aug-01 06:34N 34°08' E 135°06'1 0.1
2014-Jul-31 22:31N 34°08' E 135°07'7 0.2
2014-Jul-30 07:20N 34°03' E 135°00'911.4
2014-Jul-30 06:33N 34°12' E 134°59'1211.7
2014-Jul-30 05:31N 34°23' E 135°03'1212.0
2014-Jul-30 04:33N 34°31' E 135°14'1110.6
2014-Jul-30 03:33N 34°36' E 135°25'2 0.5
2014-Jul-30 00:19N 34°35' E 135°26'0 0.0
2014-Jul-29 23:31N 34°35' E 135°26'0 0.1
2014-Jul-29 22:33N 34°35' E 135°26'2 2.0
2014-Jul-29 21:20N 34°36' E 135°23'0 0.0
2014-Jul-29 20:26N 34°36' E 135°23'0 0.1
2014-Jul-29 19:26N 34°36' E 135°23'0 0.0
2014-Jul-29 18:20N 34°36' E 135°23'0 0.1
2014-Jul-29 17:32N 34°36' E 135°23'0 0.0
2014-Jul-29 16:26N 34°36' E 135°23'0 0.0
2014-Jul-29 15:32N 34°36' E 135°23'0 0.0
2014-Jul-29 14:32N 34°36' E 135°23'0 0.0
2014-Jul-29 13:26N 34°36' E 135°23'0 0.0
2014-Jul-29 12:32N 34°36' E 135°23'0 0.0
2014-Jul-29 11:20N 34°36' E 135°23'0 0.0
2014-Jul-29 10:20N 34°36' E 135°23'0 0.0
2014-Jul-29 09:20N 34°36' E 135°23'0 0.0
2014-Jul-29 08:32N 34°36' E 135°23'0 0.2
2014-Jul-29 07:33N 34°36' E 135°23'1211.8
2014-Jul-29 06:33N 34°28' E 135°12'1111.4
2014-Jul-29 05:33N 34°20' E 135°02'1010.0
2014-Jul-29 04:33N 34°10' E 135°00'11 0.3
2014-Jul-27 15:14N 33°59' E 135°00'812.0
2014-Jul-27 14:33N 34°07' E 134°59'1211.4
2014-Jul-27 13:29N 34°19' E 134°59'1010.4
2014-Jul-27 12:33N 34°27' E 135°06'1211.9
2014-Jul-27 11:33N 34°34' E 135°18'6 6.4
2014-Jul-27 10:33N 34°35' E 135°26'0 0.0
2014-Jul-27 09:15N 34°35' E 135°26'0 0.0
2014-Jul-27 08:33N 34°35' E 135°26'0 0.0
2014-Jul-27 07:33N 34°35' E 135°26'0 0.0
2014-Jul-27 06:33N 34°35' E 135°26'1 0.7
2014-Jul-27 05:32N 34°35' E 135°25'2 2.0
2014-Jul-27 04:33N 34°36' E 135°23'0 0.0
2014-Jul-27 03:33N 34°36' E 135°23'0 0.0
2014-Jul-27 02:27N 34°36' E 135°23'4 4.6
2014-Jul-27 01:33N 34°33' E 135°19'1212.1
2014-Jul-27 00:33N 34°25' E 135°08'1211.4
2014-Jul-26 23:30N 34°15' E 134°60'1212.2
2014-Jul-26 22:30N 34°03' E 135°01'7 0.2
2014-Jul-25 08:17N 33°56' E 135°01'810.9
2014-Jul-25 07:33N 34°04' E 135°00'1211.7
2014-Jul-25 06:30N 34°16' E 134°59'1111.4
2014-Jul-25 05:32N 34°26' E 135°06'1211.8
2014-Jul-25 04:33N 34°33' E 135°17'7 7.3
2014-Jul-25 03:33N 34°35' E 135°26'0 0.0
2014-Jul-25 02:24N 34°35' E 135°26'0 0.0
2014-Jul-25 01:30N 34°35' E 135°26'0 0.0
2014-Jul-25 00:30N 34°35' E 135°26'0 0.0
2014-Jul-24 23:24N 34°35' E 135°26'1 0.9
2014-Jul-24 22:33N 34°35' E 135°25'2 2.1
2014-Jul-24 21:32N 34°36' E 135°23'0 0.0
2014-Jul-24 20:26N 34°36' E 135°23'0 0.0
2014-Jul-24 19:32N 34°36' E 135°23'0 0.0
2014-Jul-24 18:32N 34°36' E 135°23'0 0.0
2014-Jul-24 17:32N 34°36' E 135°23'0 0.0
2014-Jul-24 16:32N 34°36' E 135°23'0 0.0
2014-Jul-24 15:14N 34°36' E 135°23'0 0.1
2014-Jul-24 14:32N 34°36' E 135°23'0 0.0
2014-Jul-24 13:32N 34°36' E 135°23'0 0.0
2014-Jul-24 12:32N 34°36' E 135°23'0 0.0
2014-Jul-24 11:32N 34°36' E 135°23'1010.1
2014-Jul-24 10:33N 34°35' E 135°11'10 9.7
2014-Jul-24 09:32N 34°37' E 134°59'1210.0
2014-Jul-24 08:18N 34°32' E 134°46'4 0.2
2014-Jul-23 13:32N 34°34' E 134°50'1111.2
2014-Jul-23 12:34N 34°37' E 135°03'1111.0
2014-Jul-23 11:33N 34°26' E 135°03'1212.5
2014-Jul-23 10:33N 34°13' E 134°60'1312.6
2014-Jul-23 09:31N 34°00' E 135°01'21310.1
2014-Jul-22 12:32N 34°50' E 139°12'1111.2
2014-Jul-22 11:33N 34°59' E 139°20'9 9.5
2014-Jul-22 10:33N 35°03' E 139°31'1010.2
2014-Jul-22 09:33N 35°07' E 139°42'1010.4
2014-Jul-22 08:33N 35°18' E 139°44'10 9.6
2014-Jul-22 07:33N 35°27' E 139°47'  

Dump ship's entire track history